Terminal Aerodrome Forecast
Issued by NWS Riverton, WY

Home | Current Version | Previous Version | Text Only | Print | Product List | Glossary On
Versions: 1 2 3 4 5 6 7 8 9 10 11 12 13 14 15 16 17
000
FTUS45 KRIW 020500
TAFRIW
TAF
KRIW 020534Z 0206/0306 24006KT P6SM SKC
     FM021500 VRB06KT P6SM SKC
     FM021900 29015G25KT P6SM SCT120
     FM022300 02015G25KT P6SM SCT040 BKN090
     FM030200 01012KT P6SM VCSH BKN025=

USA.gov is the U.S. government's official web portal to all federal, state and local government web resources and services.